Create Custom Reports and Graphics: Custom Report

Stanford Met Tower

Current Conditions

7/19/24 11:15 PM (-07:00)
Updated Every 15 Minutes
Temp 65.7 °F   2.6
RH 74 %   4
Dew Pt 57.3 °F   1.2
Wind Dir ESE | 110 °
Wind Spd 1.8 mph   1.6
Wind Gust 3.3 mph   1.6
NowCast AQI Value 32 AQI   11
NowCast AQI Status Good
Daily Min Temp 54.1 °F   1.0
Daily Max Temp 97.9 °F   13.4
Daily Max Wind 20.5 mph   8.8
Yest MinT 53.2 °F
Yest MaxT 84.5 °F
Yest MaxGst 11.8 mph
Season Precip 0.00 In

Last 48 Hours

Stanford Met Tower

Hourly Data | America/Los_Angeles
as of 7/19/24 11:41 PM PDT
Date & Time Temp (°F) RH (%) Dew Pt (°F) Wind Dir (°) Wind Spd (mph) Wind Gust (mph) Solar Rad (W/m2) Pressure (mb) NowCast AQI Value (AQI) NowCast AQI Status Latest Rain (In) Daily Rain (In) Daily Min Temp (°F) Daily Max Temp (°F)
7/19/24 - 2300 67.7 71 58.0 NE | 39 3.1 5.6 0 1,016.6 32 Good 0.00 0.00 54.1 97.9
7/19/24 - 2200 71.6 65 59.2 NE | 56 2.4 5.4 0 1,016.2 32 Good 0.00 0.00 54.1 97.9
7/19/24 - 2100 78.7 49 57.7 NNE | 27 3.2 6.1 8 1,015.2 24 Good 0.00 0.00 54.1 97.9
7/19/24 - 2000 87.2 27 49.5 NW | 315 6.2 15.8 132 1,014.2 13 Good 0.00 0.00 54.1 97.9
7/19/24 - 1900 90.6 23 48.2 WNW | 298 9.0 19.5 320 1,013.4 11 Good 0.00 0.00 54.1 97.9
7/19/24 - 1800 93.5 21 48.0 WNW | 300 9.9 20.5 517 1,013.2 12 Good 0.00 0.00 54.1 97.9
7/19/24 - 1700 96.0 21 49.9 WNW | 298 8.5 19.3 697 1,013.0 14 Good 0.00 0.00 54.1 97.9
7/19/24 - 1600 95.9 27 56.4 NW | 319 6.6 17.2 840 1,012.9 19 Good 0.00 0.00 54.1 97.9
7/19/24 - 1500 92.4 34 60.2 N | 6 5.6 11.3 927 1,013.6 18 Good 0.00 0.00 54.1 94.2
7/19/24 - 1400 89.2 40 61.6 NNW | 344 4.4 9.2 963 1,014.6 15 Good 0.00 0.00 54.1 91.5
7/19/24 - 1300 85.9 43 60.5 N | 358 3.7 8.4 948 1,015.4 13 Good 0.00 0.00 54.1 87.7
7/19/24 - 1200 82.4 50 61.6 N | 353 2.9 6.6 879 1,016.2 15 Good 0.00 0.00 54.1 84.4
7/19/24 - 1100 77.2 58 61.2 NNE | 18 2.1 6.3 755 1,017.0 17 Good 0.00 0.00 54.1 81.2
7/19/24 - 1000 70.9 69 60.2 NNE | 16 2.2 5.2 592 1,018.2 19 Good 0.00 0.00 54.1 74.7
7/19/24 - 0900 66.6 77 59.1 ENE | 67 1.5 4.7 403 1,018.9 17 Good 0.00 0.00 54.1 68.8
7/19/24 - 0800 60.7 90 57.7 SE | 130 1.6 4.3 209 1,019.2 19 Good 0.00 0.00 54.1 65.0
7/19/24 - 0700 55.0 96 53.9 SSW | 212 2.4 4.4 47 1,019.0 21 Good 0.00 0.00 54.1 59.6
7/19/24 - 0600 54.7 95 53.4 SSW | 212 1.9 4.2 0 1,018.8 21 Good 0.00 0.00 54.4 59.6
7/19/24 - 0500 55.7 93 53.9 S | 186 0.5 2.1 0 1,018.6 18 Good 0.00 0.00 55.1 59.6
7/19/24 - 0400 57.0 92 54.8 WSW | 239 1.6 5.0 0 1,018.6 18 Good 0.00 0.00 56.4 59.6
7/19/24 - 0300 58.0 91 55.3 SSW | 209 2.7 6.3 0 1,018.7 20 Good 0.00 0.00 57.2 59.6
7/19/24 - 0200 58.7 90 55.7 S | 184 2.6 5.3 0 1,019.1 20 Good 0.00 0.00 58.4 59.6
7/19/24 - 0100 60.1 87 56.3 SSE | 165 1.8 4.4 0 1,019.2 20 Good 0.00 0.00 53.2 84.5
7/19/24 - 0000 62.3 81 56.4 NE | 54 1.9 4.9 0 1,019.3 20 Good 0.00 0.00 53.2 84.5
7/18/24 - 2300 64.0 78 57.0 NE | 38 1.9 5.3 0 1,019.2 21 Good 0.00 0.00 53.2 84.5
7/18/24 - 2200 68.0 68 57.0 E | 84 3.4 6.8 0 1,018.7 17 Good 0.00 0.00 53.2 84.5
7/18/24 - 2100 70.5 62 56.6 ENE | 72 2.1 5.3 8 1,018.1 16 Good 0.00 0.00 53.2 84.5
7/18/24 - 2000 74.9 56 58.3 NE | 39 4.2 6.9 133 1,017.3 17 Good 0.00 0.00 53.2 84.5
7/18/24 - 1900 77.6 54 59.5 NNE | 27 5.3 11.1 323 1,016.4 15 Good 0.00 0.00 53.2 84.5
7/18/24 - 1800 80.5 53 61.6 NE | 36 5.6 10.2 519 1,015.9 15 Good 0.00 0.00 53.2 84.5
7/18/24 - 1700 82.6 53 63.7 NE | 43 5.2 11.8 697 1,015.5 15 Good 0.00 0.00 53.2 84.5
7/18/24 - 1600 81.5 53 62.7 N | 8 5.2 10.0 840 1,015.4 11 Good 0.00 0.00 53.2 83.1
7/18/24 - 1500 80.8 55 63.2 N | 0 5.8 10.6 933 1,015.7 14 Good 0.00 0.00 53.2 82.2
7/18/24 - 1400 79.4 58 63.2 N | 354 4.8 8.8 970 1,016.2 15 Good 0.00 0.00 53.2 80.3
7/18/24 - 1300 77.9 61 63.2 N | 354 4.2 8.6 957 1,016.6 16 Good 0.00 0.00 53.2 79.5
7/18/24 - 1200 74.8 66 62.6 N | 358 3.4 8.0 885 1,017.3 15 Good 0.00 0.00 53.2 76.8
7/18/24 - 1100 71.9 68 60.9 NNE | 31 2.5 7.6 763 1,017.7 16 Good 0.00 0.00 53.2 74.6
7/18/24 - 1000 67.8 76 59.8 NE | 41 2.8 6.3 601 1,018.3 14 Good 0.00 0.00 53.2 70.9
7/18/24 - 0900 63.5 89 60.0 NE | 43 1.9 5.4 412 1,018.8 21 Good 0.00 0.00 53.2 66.6
7/18/24 - 0800 59.9 98 59.4 SW | 218 2.0 5.1 183 1,018.8 21 Good 0.00 0.00 53.2 61.2
7/18/24 - 0700 58.3 100 58.2 S | 171 2.1 6.1 24 1,018.8 20 Good 0.00 0.00 53.2 59.3
7/18/24 - 0600 54.4 99 54.2 S | 178 3.2 7.3 0 1,018.9 17 Good 0.00 0.00 53.2 57.3
7/18/24 - 0500 53.5 98 53.1 SSW | 201 3.5 6.2 0 1,018.6 14 Good 0.00 0.00 53.2 57.3
7/18/24 - 0400 54.2 98 53.6 SSW | 200 3.1 6.0 0 1,018.7 13 Good 0.00 0.00 53.3 57.3
7/18/24 - 0300 54.9 98 54.2 S | 175 1.6 3.6 0 1,018.8 12 Good 0.00 0.00 54.0 57.3
7/18/24 - 0200 56.4 96 55.3 SSE | 150 1.5 4.7 0 1,019.0 11 Good 0.00 0.00 55.7 57.3
7/18/24 - 0100 57.9 95 56.5 S | 174 0.7 2.7 0 1,019.0 10 Good 0.00 0.00 54.8 78.4
7/18/24 - 0000 59.2 93 57.1 ESE | 104 1.0 3.3 0 1,018.9 9 Good 0.00 0.00 54.8 78.4
7/17/24 - 2300 62.4 86 58.0 ESE | 116 2.0 5.5 0 1,018.9 11 Good 0.00 0.00 54.8 78.4
Max 96.0 100 63.7 - 9.9 20.5 970 1,019.3 32 - 0.00 0.00 58.4 97.9
Avg 70.5 69 57.5 - 3.4 7.6 336 1,017.2 17 - 0.00 - - -
Min 53.5 21 48.0 - 0.5 2.1 0 1,012.9 9 - 0.00 0.00 53.2 57.3
Total - - - - - - - - - - 0.00 - - -

Last 365 Observations

Stanford Met Tower

Daily Data | America/Los_Angeles
as of 7/19/24 11:41 PM PDT
Date Daily Max Temp (°F) Time of Max Temp Daily Min Temp (°F) Time of Min Temp Daily Rain (In) Month Precip (In) Season Precip (In) Daily ETo (in) 7 Day ETo (in) Daily Solar Rad (Cal/cm2) Daily Max Wind (mph) Time of Max Wind Max Wind Dir (°) Dew Pt (°F) Max RH (%) Min RH (%) PM2.5 Daily Max (ug/m3) Time of Max PM2.5 Max Pressure (mb) (mb) Time of Max Press Min pressure (mb) (mb) Time of Min Press Max Temp2 (°F) Temp 2m (°F) Max Temp 10m (°F) Min Temp 10m (°F) Max Temp Inversion (°F) Time of Max Temp Inversion Min Temp Inversion (°F) Time of Min Temp Inversion GDDs (DL) Seas GDDs (DL) Chilling <=45F (hrs) Chilling <=45F Seas (hrs) HDDs (°F) CDDs (°F) Storm Total (In) Daily Max Rain Intensity (In/Hr) Time of Max Rain Intensity Max 1 Min Rain (In) Max 1 Min Rain Time Max 15 Min Rain (In) Max 15 Min Precip Time Max 60 Min Rain (In) Max 60 Min Rain Time MinBV Day (V)
7/18/24 84.5 1630 53.2 0445 0.00 0.00 0.00 0.218 1.34 709 11.8 1607 N | 1 58.8 100 49 6.5 - 1,019.5 2304 - 1555 - 69.3 82.0 53.4 3.1 2211 -9.9 1333 17.9 1,384 0.0 - 3.1 6.0 - - - - - - - - - 12.2
7/17/24 78.4 1738 54.8 0205 0.00 0.00 0.00 0.187 1.35 692 12.4 1216 N | 1 58.9 96 56 4.0 - 1,020.8 0838 - 1808 - 68.5 76.3 55.0 2.8 2328 -9.4 1349 14.8 1,366 0.0 - 3.4 3.2 - - - - - - - - - 12.2
7/16/24 74.5 1629 54.5 0322 0.00 0.00 0.00 0.193 1.38 672 17.2 1522 N | 10 55.2 95 55 3.0 - 1,020.3 0054 - 1602 - 64.5 72.7 55.3 4.0 0141 -8.6 1157 14.0 1,351 0.0 - 3.6 2.6 - - - - - - - - - 12.3
7/15/24 74.7 1638 55.8 0100 0.00 0.00 0.00 0.174 1.38 624 16.6 1508 NNE | 32 57.5 91 58 9.0 - 1,021.4 0834 - 1739 - 65.6 72.7 57.5 3.6 0056 -9.7 1310 15.0 1,337 0.0 - 2.1 2.1 - - - - - - - - - 12.3
7/14/24 74.5 1655 60.0 0125 0.00 0.00 0.00 0.177 1.41 626 15.0 1343 NNE | 26 59.5 96 62 8.5 - 1,020.7 0801 - 1700 - 66.9 72.7 60.5 2.6 0127 -8.2 1459 16.1 1,322 0.0 - 1.6 2.6 - - - - - - - - - 12.2
7/13/24 76.8 1448 59.9 0209 0.00 0.00 0.00 0.170 1.45 590 13.4 1220 ENE | 64 60.1 96 60 17.3 - 1,017.9 2233 - 0458 - 67.2 74.3 59.8 2.5 0017 -8.5 1354 16.4 1,306 0.0 - 1.6 3.0 - - - - - - - - - 12.3
7/12/24 86.3 1434 58.6 0610 0.00 0.00 0.00 0.217 1.51 691 13.0 1529 NNE | 15 61.0 97 48 22.8 - 1,013.9 0758 - 1503 - 71.0 84.1 59.3 4.3 0338 -8.4 1519 19.9 1,289 0.0 - 1.4 6.3 - - - - - - - - - 12.2
7/11/24 94.0 1545 56.8 0550 0.00 0.00 0.00 0.234 1.54 699 9.8 1607 NNE | 28 62.8 100 40 20.3 - 1,014.4 0747 - 1549 - 74.2 92.0 57.5 4.3 0229 -8.4 1342 23.2 1,269 0.0 - 1.7 10.0 - - - - - - - - - 12.2
7/10/24 85.5 1423 61.2 0059 0.00 0.00 0.00 0.216 1.55 684 11.3 1518 NE | 48 62.7 96 51 12.3 - 1,015.4 0820 - 1546 - 71.7 83.8 61.3 4.1 0046 -9.4 1331 20.7 1,246 0.0 - 1.0 6.7 - - - - - - - - - 12.2
7/9/24 75.9 1706 58.0 0208 0.00 0.00 0.00 0.197 1.59 698 15.3 1439 NNW | 344 60.6 98 63 9.5 - 1,015.1 2251 - 1610 - 67.6 74.7 58.6 3.4 0222 -9.2 1424 16.5 1,226 0.0 - 1.7 3.2 - - - - - - - - - 12.3
7/8/24 78.1 1458 59.0 0100 0.00 0.00 0.00 0.200 1.66 687 14.1 1500 NE | 37 60.7 95 58 12.0 - 1,014.6 0131 - 1443 - 68.5 76.2 59.8 3.0 0049 -9.5 1216 17.4 1,209 0.0 - 1.5 3.9 - - - - - - - - - 12.2
7/7/24 80.5 1450 57.2 0604 0.00 0.00 0.00 0.217 1.69 717 12.3 1523 NNE | 16 61.8 99 55 12.5 - 1,015.3 0837 - 1600 - 69.6 79.0 58.1 3.5 0501 -9.3 1438 18.6 1,192 0.0 - 1.8 5.3 - - - - - - - - - 12.2
7/6/24 88.5 1522 56.5 0555 0.00 0.00 0.00 0.231 1.71 718 10.8 1519 N | 10 61.6 98 42 16.0 - 1,014.8 0102 - 1532 - 72.5 87.2 56.9 3.3 0449 -9.2 1310 21.4 1,173 0.0 - 1.7 8.1 - - - - - - - - - 12.2
7/5/24 91.1 1704 55.4 0532 0.00 0.00 0.00 0.250 1.70 739 14.4 1822 NNW | 339 59.3 96 28 345.0 - 1,018.0 0103 - 1619 - 73.9 89.2 56.5 4.6 0241 -8.8 1251 23.1 1,152 0.0 - 1.9 10.0 - - - - - - - - - 12.2
7/4/24 89.6 1406 59.4 0611 0.00 0.00 0.00 0.243 1.67 722 11.2 1438 NNE | 18 61.3 94 39 19.3 - 1,018.1 2314 - 1557 - 74.0 87.6 60.0 4.3 0146 -7.9 1229 23.4 1,129 0.0 - 1.1 9.5 - - - - - - - - - 12.2
7/3/24 97.7 1252 59.1 0554 0.00 0.00 0.00 0.254 1.65 716 11.1 1505 N | 2 60.1 87 27 13.3 - 1,015.6 0059 - 1558 - 77.2 95.8 60.0 6.4 0408 -7.6 1311 26.8 1,105 0.0 - 0.9 12.6 - - - - - - - - - 12.3
7/2/24 100.1 1416 56.4 0536 0.00 0.00 0.00 0.263 1.60 739 11.3 1506 NNE | 24 60.2 94 24 13.8 - 1,013.0 0633 - 1600 - 77.4 98.3 57.2 7.0 2159 -7.9 1408 27.2 1,078 0.0 - 1.8 14.0 - - - - - - - - - 12.3
7/1/24 85.5 1402 54.7 0521 0.00 0.00 0.00 0.232 1.48 734 11.1 1507 NNE | 22 59.0 97 44 13.5 - 1,017.1 0636 - 1813 - 70.1 83.4 54.6 4.9 2306 -8.8 1212 19.5 1,051 0.0 - 2.8 7.2 - - - - - - - - - 12.2
6/30/24 82.7 1454 55.1 0553 0.00 0.00 19.24 0.240 1.44 730 20.0 1517 NW | 307 56.0 93 40 13.3 - 1,017.6 2236 - 1533 - 69.7 82.0 55.3 3.4 0558 -7.4 1350 19.4 1,032 0.0 - 2.7 7.0 - - - - - - - - - 12.3
6/29/24 84.2 1710 52.4 0603 0.00 0.00 19.24 0.216 1.42 725 14.7 1403 NNW | 337 57.9 98 46 18.8 - 1,015.8 2348 - 0109 - 67.1 81.6 52.5 4.0 2331 -9.2 1129 16.4 1,012 0.0 - 3.5 4.9 - - - - - - - - - 12.2
6/28/24 80.5 1605 49.9 0559 0.00 0.00 19.24 0.219 1.42 728 13.6 1511 NNE | 30 56.4 94 49 13.8 - 1,013.2 0103 - 1601 - 66.5 78.8 50.1 3.4 0230 -9.3 1158 15.7 996 0.0 - 4.3 5.0 - - - - - - - - - 12.2
6/27/24 78.8 1358 50.6 0602 0.00 0.00 19.24 0.222 1.40 743 17.9 1727 NW | 314 52.0 92 37 10.8 - 1,018.4 0107 - 1612 - 64.7 77.1 50.8 5.2 2218 -8.8 1138 14.0 980 0.0 - 4.5 3.5 - - - - - - - - - 12.3
6/26/24 78.2 1546 55.2 0514 0.00 0.00 19.24 0.206 1.37 701 14.0 1511 NE | 37 52.9 93 41 5.5 - 1,020.0 0731 - 1607 - 64.6 75.9 56.0 4.8 2209 -9.8 1230 14.0 966 0.0 - 3.9 2.9 - - - - - - - - - 12.2
6/25/24 83.2 1730 58.0 0059 0.00 0.00 19.24 0.145 1.36 589 11.4 1359 NNE | 28 57.9 88 43 7.8 - 1,018.2 0056 - 1744 - 68.6 81.4 58.5 2.5 0423 -9.1 1324 18.9 952 0.0 - 1.6 5.5 - - - - - - - - - 12.3
6/24/24 82.0 1456 52.1 0603 0.00 0.00 19.24 0.194 1.45 632 9.9 1255 N | 3 57.0 98 46 8.3 - 1,015.8 0637 - 1806 - 67.4 79.8 52.5 3.7 2300 -9.9 1328 16.7 933 0.0 - 3.6 5.2 - - - - - - - - - 10.8
6/23/24 81.0 1426 51.6 0615 0.00 0.00 19.24 0.219 1.50 732 11.8 1222 N | 3 57.6 98 49 8.5 - 1,014.9 2324 - 1538 - 67.1 78.3 52.2 3.9 0311 -10.1 1325 16.3 917 0.0 - 3.6 4.9 - - - - - - - - - 11.2
6/22/24 83.9 1655 51.1 0514 0.00 0.00 19.24 0.219 1.51 719 10.1 1330 NNE | 19 57.2 99 43 8.8 - 1,013.2 2339 - 1537 - 67.2 81.9 52.2 4.5 2359 -9.6 1341 16.3 900 0.0 - 4.1 5.4 - - - - - - - - - 10.7
6/21/24 75.9 1623 48.6 0531 0.00 0.00 19.24 0.199 1.52 709 14.4 1353 NNW | 333 53.6 95 55 6.0 - 1,014.2 0101 - 1632 - 62.4 73.7 48.6 2.9 0046 -9.9 1136 11.6 884 0.0 - 5.8 2.3 - - - - - - - - - 11.1
6/20/24 73.0 1554 48.6 0303 0.00 0.00 19.24 0.190 1.54 703 14.2 1651 NE | 43 50.3 93 42 4.0 - 1,015.9 0102 - 1604 - 60.2 71.2 48.8 3.2 0220 -10.2 1250 9.4 872 0.0 - 6.7 1.1 - - - - - - - - - 11.1
6/19/24 73.7 1543 47.0 0559 0.00 0.00 19.24 0.199 1.56 723 14.7 1307 NE | 42 48.7 93 38 29.8 - 1,016.5 0010 - 1538 - 59.9 71.8 47.0 3.7 0136 -9.4 1209 9.4 863 0.0 - 7.2 1.2 - - - - - - - - - 11.0
6/18/24 85.9 1527 49.2 0456 0.00 0.00 19.24 0.231 1.58 673 21.3 1542 NW | 315 43.6 82 12 12.0 - 1,014.5 0023 - 1546 - 66.2 84.3 50.7 7.1 0205 -7.6 1250 15.8 854 0.0 - 5.2 6.1 - - - - - - - - - 12.4
6/17/24 81.3 1609 50.8 0604 0.00 0.00 19.24 0.240 1.58 754 19.6 1650 NNW | 338 44.2 83 20 2.5 - 1,015.8 0810 - 1746 - 66.0 80.1 52.4 8.5 2128 -7.8 1155 15.7 838 0.0 - 3.9 4.6 - - - - - - - - - 11.4
6/16/24 79.0 1431 48.7 0544 0.00 0.00 19.24 0.237 1.54 737 24.1 1951 NW | 309 47.5 92 25 6.8 - 1,016.2 0104 - 1542 - 65.2 78.1 49.1 2.9 2201 -9.1 1251 14.7 822 0.0 - 4.2 3.9 - - - - - - - - - 11.3
6/15/24 81.4 1555 47.5 0611 0.00 0.00 19.24 0.224 1.52 743 16.3 1645 SSW | 192 47.8 88 25 6.3 - 1,020.6 0400 - 1551 - 63.5 80.0 48.2 6.0 0533 -9.2 1153 12.9 807 0.0 - 5.8 3.6 - - - - - - - - - 11.1
6/14/24 80.0 1610 47.2 0601 0.00 0.00 19.24 0.220 1.50 738 18.6 1732 NW | 313 48.6 94 28 6.8 - 1,020.7 2240 - 1547 - 63.2 78.8 47.3 5.6 0004 -9.4 1335 12.6 794 0.0 - 5.8 3.2 - - - - - - - - - 12.2
6/13/24 76.8 1514 51.6 0444 0.00 0.00 19.24 0.209 1.49 729 14.0 1407 ENE | 59 52.7 98 43 6.8 - 1,020.4 2345 - 0313 - 62.9 74.0 52.3 3.6 0333 -9.4 1318 12.7 782 0.0 - 4.7 2.4 - - - - - - - - - 12.3
6/12/24 80.7 1455 54.4 0553 0.00 0.00 19.24 0.221 1.48 733 19.4 1713 WSW | 243 57.0 99 48 10.0 - 1,015.1 0038 - 1531 - 66.5 79.1 55.4 4.4 0329 -9.0 1238 16.2 769 0.0 - 2.9 4.1 - - - - - - - - - 12.2
6/11/24 89.8 1705 52.4 0611 0.00 0.00 19.24 0.230 1.51 715 11.3 1604 N | 6 59.0 98 41 8.5 - 1,015.7 0138 - 1800 - 70.1 87.6 52.5 4.4 0024 -8.3 1246 19.7 753 0.0 - 3.5 8.2 - - - - - - - - - 12.2
6/10/24 76.5 1352 51.6 0447 0.00 0.00 19.24 0.204 1.54 714 12.0 1230 NNE | 20 55.8 94 57 6.3 - 1,017.5 0303 - 1533 - 64.4 74.5 52.0 2.7 2247 -8.4 1341 13.6 733 0.0 - 4.4 3.1 - - - - - - - - - 12.2
6/9/24 80.4 1505 52.2 0252 0.00 0.00 19.24 0.208 1.49 708 15.6 1715 S | 184 52.2 93 37 4.8 - 1,017.7 2333 - 1506 - 63.4 79.0 52.6 4.0 0106 -9.3 1247 13.2 720 0.0 - 4.7 2.9 - - - - - - - - - 12.3
6/8/24 78.1 1614 52.0 0539 0.00 0.00 19.24 0.203 1.48 694 17.3 1709 NNW | 343 51.8 96 26 5.3 - 1,016.0 2325 - 1613 - 63.4 76.4 52.1 5.8 2214 -8.8 1309 13.0 706 0.0 - 4.9 2.9 - - - - - - - - - 12.3
6/7/24 79.4 1426 52.2 0438 0.00 0.00 19.24 0.213 1.48 723 22.4 1654 S | 187 55.9 99 49 11.0 - 1,015.8 0017 - 1455 - 64.2 77.2 52.2 3.5 0159 -8.9 1236 14.1 694 0.0 - 4.4 3.5 - - - - - - - - - 12.2
6/6/24 75.1 1504 54.8 0610 0.00 0.00 19.24 0.204 1.49 719 12.5 1150 N | 11 57.2 98 56 11.3 - 1,013.5 0825 - 1754 - 65.3 74.2 55.5 4.3 0542 -9.3 1136 14.6 679 0.0 - 3.4 2.9 - - - - - - - - - 12.2
6/5/24 93.4 1654 58.2 0542 0.00 0.00 19.24 0.247 1.52 719 14.4 1656 NW | 318 60.2 95 29 9.3 - 1,014.6 0805 - 1802 - 74.6 92.2 59.5 4.5 0016 -7.3 1017 24.4 665 0.0 - 1.3 10.7 - - - - - - - - - 12.2
6/4/24 91.5 1523 50.0 0540 0.00 0.00 19.24 0.255 1.50 718 22.9 1834 WNW | 301 55.7 94 31 10.8 - 1,017.4 0101 - 1528 - 71.9 90.3 50.2 5.2 2155 -6.9 1051 21.8 640 0.0 - 3.6 10.4 - - - - - - - - - 12.2
6/3/24 73.8 1401 52.6 0050 0.00 0.00 19.24 0.163 1.46 563 25.4 1719 W | 280 56.4 98 60 13.0 - 1,018.4 1143 - 1530 - 63.3 72.7 53.2 4.1 2233 -5.8 1257 13.2 619 0.0 - 3.7 1.9 - - - - - - - - - 11.7
6/2/24 73.5 1450 54.1 0538 0.00 0.00 19.24 0.193 1.48 697 20.8 1524 NNW | 335 55.5 92 51 3.3 - 1,017.8 2343 - 1506 - 64.2 72.6 55.2 3.9 0506 -7.3 1010 14.0 605 0.0 - 2.7 1.7 - - - - - - - - - 12.3
6/1/24 73.6 1305 49.6 0633 0.00 0.00 19.24 0.206 1.49 725 26.0 1700 WNW | 298 50.7 92 45 16.3 - 1,017.3 0011 - 1345 - 62.0 72.2 50.3 3.3 0436 -7.6 1326 11.9 591 0.0 - 4.7 1.5 - - - - - - - - - 12.2
5/31/24 82.9 1823 50.7 0509 0.00 0.81 19.24 0.222 1.43 723 11.8 1319 NNW | 339 54.8 93 35 24.8 - 1,014.7 2347 - 1526 - 66.8 80.9 51.7 3.6 0307 -7.9 1123 16.2 580 0.0 - 4.2 5.4 - - - - - - - - - 12.2
5/30/24 85.7 1447 48.8 0555 0.00 0.81 19.24 0.233 1.36 732 12.6 1448 N | 0 53.2 95 27 22.5 - 1,019.1 0709 - 1812 - 67.5 84.2 49.4 5.1 2228 -8.1 1204 17.0 563 0.0 - 4.5 6.5 - - - - - - - - - 12.2
5/29/24 83.0 1547 47.4 0602 0.00 0.81 19.24 0.228 1.34 734 15.4 1604 N | 1 49.1 90 30 18.8 - 1,022.6 0701 - 1555 - 65.6 81.6 47.6 6.7 0155 -8.1 1214 15.1 546 0.0 - 5.1 5.1 - - - - - - - - - 12.3
5/28/24 75.3 1611 49.3 0603 0.00 0.81 19.24 0.209 1.32 719 19.5 1627 NW | 304 49.0 94 35 11.3 - 1,021.6 0026 - 1512 - 62.6 74.0 48.7 6.6 0038 -8.7 1226 11.9 531 0.0 - 5.4 2.3 - - - - - - - - - 12.2
5/27/24 72.2 1618 47.6 0619 0.00 0.81 19.24 0.193 1.34 721 14.4 1711 NE | 50 50.8 94 48 15.3 - 1,020.9 2240 - 1542 - 59.8 70.4 47.4 2.4 2133 -8.8 1129 9.2 519 0.0 - 7.0 1.0 - - - - - - - - - 11.6
5/26/24 76.5 1611 42.7 0254 0.00 0.81 19.24 0.202 1.35 718 15.8 1614 NW | 318 48.6 98 32 12.3 - 1,021.1 0109 - 1611 - 59.8 74.6 43.3 4.6 0131 -9.8 1147 10.8 510 5.7 - 8.3 2.5 - - - - - - - - - 11.3
5/25/24 66.1 1542 43.8 0059 0.00 0.81 19.24 0.143 1.35 555 18.3 1416 NW | 313 49.3 95 57 11.5 - 1,021.3 2236 - 0239 - 56.7 64.3 44.8 4.5 0020 -8.7 1500 6.8 499 0.5 - 8.6 0.0 - - - - - - - - - 11.5
5/24/24 62.9 1405 44.6 0502 0.00 0.81 19.24 0.154 1.39 650 22.8 1347 WSW | 248 48.1 97 61 18.5 - 1,017.0 0036 - 1541 - 55.3 60.9 45.8 4.3 0539 -8.2 1402 5.6 493 0.3 - 10.2 0.0 - - - - - - - - - 11.3
5/23/24 78.5 1529 45.5 0619 0.00 0.81 19.24 0.206 1.42 711 16.1 1720 SSW | 198 46.8 92 23 23.3 - 1,016.9 0757 - 1540 - 60.2 76.8 45.9 2.7 0153 -8.5 1230 10.2 487 0.0 - 7.7 2.4 - - - - - - - - - 11.5
5/22/24 79.1 1541 47.8 0501 0.00 0.81 19.24 0.208 1.40 704 20.8 1929 WNW | 287 49.5 94 41 20.3 - 1,017.3 0655 - 1541 - 62.0 78.1 48.2 4.4 2337 -8.5 1209 11.8 477 0.0 - 6.2 2.8 - - - - - - - - - 12.2
5/21/24 83.1 1601 46.5 0540 0.00 0.81 19.24 0.230 1.37 722 16.2 1613 WNW | 282 47.2 96 20 24.8 - 1,018.1 0656 - 1600 - 64.2 81.5 46.4 4.8 2227 -7.1 1344 14.4 465 0.0 - 6.3 5.3 - - - - - - - - - 11.0
5/20/24 77.1 1615 45.2 0556 0.00 0.81 19.24 0.204 1.32 710 16.9 1631 SSW | 200 48.4 97 36 24.5 - 1,017.8 0759 - 1609 - 60.4 75.9 46.6 4.3 0500 -7.2 1222 10.7 450 0.0 - 7.4 2.6 - - - - - - - - - 11.4
5/19/24 76.3 1503 48.6 0519 0.00 0.81 19.24 0.205 1.29 720 16.4 1609 NNE | 12 47.2 93 25 19.8 - 1,020.1 0719 - 1546 - 60.2 74.8 49.6 4.2 0511 -8.3 1156 10.0 440 0.0 - 6.7 1.7 - - - - - - - - - 11.5
5/18/24 72.7 1641 52.8 0024 0.00 0.81 19.24 0.184 1.26 686 18.2 1717 S | 188 53.5 90 57 14.0 - 1,019.1 0056 - 1551 - 61.2 71.2 52.9 2.2 0032 -7.6 1311 10.9 430 0.0 - 5.2 1.1 - - - - - - - - - 11.6
5/17/24 70.7 1617 54.5 0639 0.00 0.81 19.24 0.182 1.28 685 16.5 1345 N | 354 53.3 95 59 3.5 - 1,017.2 0823 - 1554 - 61.0 69.1 53.8 2.2 2307 -8.1 1053 10.7 419 0.0 - 5.1 0.8 - - - - - - - - - 12.2
5/16/24 73.3 1744 54.4 0538 0.00 0.81 19.24 0.192 1.33 702 16.4 2116 SSW | 208 54.7 91 57 15.0 - 1,017.0 0848 - 1755 - 62.6 71.2 53.9 1.3 2012 -7.9 1234 12.4 408 0.0 - 4.3 1.7 - - - - - - - - - 12.2
5/15/24 70.5 1441 54.4 0100 0.00 0.81 19.24 0.175 1.36 652 13.7 1501 NNE | 26 55.7 98 64 15.3 - 1,016.0 0056 - 1539 - 62.1 69.6 55.1 2.7 2300 -7.5 1059 11.7 396 0.0 - 4.5 1.1 - - - - - - - - - 12.2
5/14/24 72.4 1221 52.5 0101 0.02 0.81 19.24 0.182 1.42 673 14.1 1625 NNE | 17 54.5 98 59 10.0 - 1,016.8 0101 - 1528 - 61.1 70.3 52.4 3.6 0016 -7.4 1252 10.9 384 0.0 - 5.3 1.2 - 0.41 2319 0.01 2220 0.02 2232 0.02 2317 12.2
5/13/24 69.8 1744 48.0 0334 0.00 0.79 19.22 0.168 1.42 650 15.5 1244 NNE | 28 52.5 100 60 13.0 - 1,018.0 0804 - 1649 - 57.1 68.4 49.4 6.1 0330 -6.2 1112 8.2 373 0.0 - 7.4 0.5 - - - - - - - - - 11.6
5/12/24 71.6 1514 50.8 0314 0.00 0.79 19.22 0.174 1.43 653 12.9 1159 NE | 37 54.9 100 61 12.3 - 1,017.7 0911 - 1531 - 57.7 69.7 51.6 7.2 0229 -5.2 1046 10.5 365 0.0 - 5.5 0.9 - - - - - - - - - 11.2
5/11/24 79.9 1219 49.6 0559 0.01 0.79 19.22 0.212 1.42 706 13.0 1248 NNE | 29 55.6 98 48 15.5 - 1,016.9 0051 - 1553 - 60.8 77.8 50.3 7.2 0127 -2.7 1148 14.6 354 0.0 - 4.9 4.5 - 0.01 2319 0.01 2220 0.01 2234 0.01 2319 11.5
5/10/24 86.3 1747 48.6 0622 0.00 0.78 19.21 0.223 1.25 703 11.8 1438 NW | 307 52.2 92 23 13.5 - 1,017.7 0703 - 1802 - 62.8 84.7 49.0 9.6 2255 -2.6 1041 17.0 340 0.0 - 4.7 6.7 - - - - - - - - - 11.7
5/9/24 84.0 1539 48.9 0631 0.00 0.78 19.21 0.225 1.21 702 15.4 1746 NW | 321 46.2 90 24 17.0 - 1,017.8 0053 - 1538 - 62.0 82.0 50.9 17.9 0213 -0.5 1042 16.4 323 0.0 - 4.5 5.9 - - - - - - - - - 12.4
5/8/24 78.3 1654 44.1 0556 0.00 0.78 19.21 0.234 1.18 712 23.8 1230 NW | 317 41.1 94 19 9.5 - 1,018.6 0739 - 1735 - 59.0 77.3 45.5 14.8 2253 -0.6 1023 13.4 306 0.6 - 6.4 3.9 - - - - - - - - - 12.3
5/7/24 71.7 1654 44.2 0628 0.00 0.78 19.21 0.186 1.15 689 17.7 0357 W | 275 45.7 96 39 9.0 - 1,022.8 0105 - 1851 - 55.7 70.7 45.0 8.7 2055 -5.2 1209 8.5 293 0.3 - 7.8 1.0 - - - - - - - - - 12.3
5/6/24 67.1 1503 39.6 0627 0.00 0.78 19.21 0.174 1.14 686 21.4 1710 NNW | 329 45.5 97 51 6.3 - 1,024.9 0834 - 1631 - 51.6 65.8 40.4 7.6 0058 -4.6 1504 5.9 285 6.4 - 11.6 0.0 - - - - - - - - - 12.3
5/5/24 60.3 1414 41.5 0636 0.00 0.78 19.21 0.162 1.15 676 22.2 1503 WSW | 243 42.0 99 49 5.8 - 1,024.6 2226 - 0213 - 50.6 58.8 42.3 6.1 0551 -5.9 1328 3.4 279 6.2 - 13.9 0.0 - 0.01 0159 - - 0.01 0114 0.01 0159 12.3
5/4/24 56.8 0732 44.2 2229 0.78 0.78 19.21 0.042 1.17 178 21.6 1035 NW | 312 48.2 97 65 6.5 - 1,017.6 0043 - 0922 - 50.5 56.0 44.4 4.7 2042 -3.2 1452 2.6 275 1.0 - 13.2 0.0 0.78 0.74 1027 0.01 0100 0.10 1031 0.25 1037 12.5
5/3/24 77.8 1519 45.9 0530 0.00 0.00 18.43 0.190 1.30 656 21.2 1649 NW | 319 49.2 98 19 5.8 - 1,017.6 0107 - 1520 - 60.4 75.3 46.2 2.7 0100 -8.2 1204 10.0 273 0.0 - 7.3 1.8 - - - - - - - - - 12.2
5/2/24 74.4 1524 43.9 0626 0.00 0.00 18.43 0.188 1.25 664 22.4 1559 NNW | 329 48.4 95 46 9.5 - 1,020.0 0802 - 1520 - 59.6 72.9 44.3 3.9 2217 -7.7 1330 10.0 263 1.7 - 7.8 1.7 - - - - - - - - - 11.4
5/1/24 78.4 1547 42.3 0624 0.00 0.00 18.43 0.204 - 681 14.4 1441 NW | 320 40.8 94 21 12.0 - 1,020.0 0748 - 1624 - 60.0 76.6 42.7 5.4 2119 -8.4 1340 11.0 253 5.3 - 8.7 3.1 - - - - - - - - - 12.3
4/30/24 69.7 1708 40.7 0529 0.00 1.00 18.43 0.180 - 674 16.2 1504 N | 354 43.9 97 37 14.8 - 1,021.2 0132 - 1735 - 56.1 68.1 41.0 3.4 0115 -8.4 1131 7.2 242 6.0 - 10.5 0.6 - - - - - - - - - 11.6
4/29/24 70.9 1335 42.9 0602 0.00 1.00 18.43 0.185 - 673 19.9 1644 NNW | 334 44.8 96 40 15.8 - 1,022.9 0748 - 1543 - 57.3 69.6 43.7 5.6 0325 -8.9 1419 7.5 234 1.9 - 9.2 0.6 - - - - - - - - - 11.4
4/28/24 69.9 1301 44.1 0621 0.00 1.00 18.43 0.184 - 667 22.3 1812 WNW | 287 47.9 99 44 5.3 - 1,023.8 0737 - 1526 - 58.6 69.1 44.3 3.0 0508 -8.5 1426 8.8 227 1.8 - 7.9 0.6 - - - - - - - - - 11.6
4/27/24 70.8 1358 41.5 0614 0.00 1.00 18.43 0.172 - 656 18.8 1452 S | 185 46.7 100 47 7.3 - 1,023.5 0052 - 1410 - 55.6 68.0 42.3 5.5 0242 -9.2 1217 6.6 218 5.6 - 10.6 0.3 - - - - - - - - - 11.4
4/26/24 64.7 1301 45.9 0054 0.00 1.00 18.43 0.137 - 521 28.1 1350 WNW | 282 48.2 96 60 6.0 - 1,021.3 0101 - 1636 - 56.1 62.4 46.4 3.3 2237 -7.5 1253 7.4 212 0.0 - 7.8 0.0 - - - - - - - - - 11.8
4/25/24 63.2 1418 47.6 0412 0.00 1.00 18.43 - - 460 25.0 1528 W | 280 51.5 97 63 7.5 - 1,022.7 1130 - 1703 - 57.6 61.0 47.4 3.6 0333 -7.5 1401 6.6 204 0.0 - 8.6 0.0 - - - - - - - - - 11.6
4/24/24 65.7 1443 55.1 2259 0.00 1.00 18.43 0.083 1.09 248 18.2 1740 W | 264 48.6 87 52 11.8 - 1,021.7 0021 - 1654 - 57.8 62.8 54.2 1.9 2215 -4.4 1346 9.1 198 0.0 - 5.9 0.0 - - - - - - - - - 11.9
4/23/24 64.4 1709 55.0 0111 0.00 1.00 18.43 0.088 1.18 273 21.1 1640 S | 188 48.4 80 55 17.0 - 1,020.5 2239 - 0251 - 56.6 62.2 53.7 1.7 0320 -3.4 1552 8.5 189 0.0 - 6.5 0.0 - - - - - - - - - 12.4
4/22/24 77.9 1514 51.2 0546 0.00 1.00 18.43 0.191 1.27 637 25.5 1730 S | 185 53.7 98 51 19.5 - 1,015.0 0056 - 1459 - 62.1 75.3 50.8 2.3 0349 -9.3 1140 12.4 180 0.0 - 5.7 3.1 - - - - - - - - - 12.2
4/21/24 80.7 1518 47.5 0541 0.00 1.00 18.43 0.194 1.20 653 11.3 1554 NNE | 25 52.3 96 37 20.8 - 1,022.6 0110 - 1904 - 62.7 77.6 46.6 3.5 2214 -8.1 1413 13.4 168 0.0 - 6.2 4.2 - - - - - - - - - 12.2
4/20/24 75.9 1601 48.5 0059 0.00 1.00 18.43 0.193 1.12 652 20.1 1633 NNW | 327 45.2 97 17 11.8 - 1,022.7 2326 - 0101 - 60.0 73.4 47.9 6.2 2131 -7.6 1307 10.6 154 0.0 - 6.2 1.7 - - - - - - - - - 12.3
4/19/24 70.0 1307 49.0 0159 0.00 1.00 18.43 0.155 0.98 579 12.4 1332 NNE | 17 52.3 97 50 24.5 - 1,018.8 0046 - 1507 - 58.0 67.4 48.3 3.6 2209 -8.8 1156 9.0 144 0.0 - 6.7 0.7 - - - - - - - - - 11.3
4/18/24 77.8 1306 49.1 0518 0.00 1.00 18.43 0.183 0.98 627 16.3 1508 N | 0 52.8 98 46 22.5 - 1,017.7 0059 - 1339 - 60.3 74.6 48.6 4.9 2304 -7.0 1208 11.6 135 0.0 - 6.5 3.1 - - - - - - - - - 11.8
4/17/24 80.7 1426 48.3 0547 0.00 1.00 18.43 0.175 0.95 587 12.6 1741 NW | 317 53.8 96 39 19.3 - 1,021.2 0102 - 1703 - 62.0 77.6 48.2 5.1 2030 -7.3 1206 13.2 123 0.0 - 6.0 4.1 - - - - - - - - - 11.6
4/16/24 76.6 1722 44.2 0631 0.00 1.00 18.43 0.176 0.96 612 13.0 1659 NNE | 12 50.0 97 36 8.3 - 1,024.5 0802 - 1749 - 59.3 74.4 43.6 5.4 2008 -7.5 1015 11.0 110 1.0 - 7.9 2.9 - - - - - - - - - 12.2
4/15/24 66.6 1717 47.6 0039 0.00 1.00 18.43 0.129 0.96 490 14.1 1605 NNE | 14 49.2 96 58 3.8 - 1,026.1 1054 - 1859 - 56.4 64.3 47.4 2.1 2157 -8.4 1406 6.9 99 0.0 - 8.3 0.1 - - - - - - - - - 12.3
4/14/24 61.6 1737 46.4 0650 0.10 1.00 18.43 0.111 1.00 444 17.6 1520 N | 1 46.2 97 52 3.0 - 1,024.0 2243 - 0104 - 53.4 59.4 45.0 1.7 0046 -8.3 1430 4.0 92 0.0 - 11.6 0.0 0.39 0.21 0400 0.01 0559 0.04 0401 0.08 0426 12.4
4/13/24 58.9 0107 46.6 0701 0.29 0.90 18.33 0.049 1.02 162 24.2 1129 ESE | 112 45.6 94 67 2.8 - 1,017.0 2154 - 0248 - 50.1 56.8 44.0 0.7 0727 -2.8 1656 1.9 88 0.0 - 13.8 0.0 0.29 0.51 0324 0.01 0059 0.07 0328 0.14 0411 12.5
4/12/24 66.1 1125 45.6 0643 0.00 0.61 18.04 0.161 1.10 629 30.2 1723 SSW | 203 47.8 97 54 14.8 - 1,012.6 2257 - 1102 - 56.4 63.0 45.7 2.2 0636 -6.8 1015 7.1 86 0.0 - 8.4 0.0 - - - - - - - - - 12.3
4/11/24 79.0 1252 47.5 0621 0.00 0.61 18.04 0.153 1.07 619 56.1 1336 NNE | 27 51.4 97 30 69.0 - 1,020.5 0101 - 1749 - 62.1 83.6 47.6 3.9 2343 -9.7 1257 12.6 79 0.0 - 6.4 3.8 - - - - - - - - - 12.3
4/10/24 80.8 1429 44.5 0632 0.00 0.61 18.04 0.176 1.00 598 10.6 1505 N | 11 50.8 96 29 19.0 - 1,024.9 0110 - 1823 - 61.8 77.6 43.9 5.5 2009 -7.9 1254 12.7 66 0.6 - 7.4 4.2 - - - - - - - - - 12.2
4/9/24 77.6 1452 41.9 0639 0.00 0.61 18.04 0.178 0.96 609 11.6 1605 NNW | 346 45.7 94 28 10.8 - 1,025.7 0820 - 1727 - 59.8 75.2 41.5 4.5 2135 -8.0 1420 11.5 54 4.3 - 8.6 3.5 - - - - - - - - - 11.8
4/8/24 72.1 1654 39.3 0645 0.00 0.61 18.04 0.166 0.94 589 15.6 1514 NNE | 25 41.2 96 29 7.3 - 1,024.7 0054 - 1659 - 55.5 69.8 39.3 4.7 2008 -7.8 1420 7.9 42 6.8 - 10.8 1.2 - - - - - - - - - 12.3
4/7/24 62.9 1533 38.9 0624 0.00 0.61 18.04 0.139 0.93 555 17.2 1509 NW | 311 41.8 96 46 6.8 - 1,029.2 0114 - 1838 - 51.0 61.0 38.1 4.9 2133 -8.6 1303 4.2 34 8.5 - 14.2 0.0 - - - - - - - - - 12.4
4/6/24 60.9 1444 38.2 0650 0.00 0.61 18.04 0.129 0.92 521 18.3 1420 NE | 45 39.3 96 42 9.5 - 1,030.5 1016 - 0101 - 49.1 58.9 38.1 4.3 2124 -8.2 1223 3.1 30 11.0 - 16.0 0.0 - - - - - - - - - 10.7
4/5/24 57.7 1415 40.9 0627 0.02 0.61 18.04 0.132 0.89 549 27.1 1558 NW | 304 39.4 98 45 9.0 - 1,025.9 0058 - 0328 - 48.3 56.0 40.1 3.7 0553 -6.9 1404 1.8 27 8.0 - 16.2 0.0 0.61 0.04 0137 0.01 0138 0.01 0152 0.04 0109 10.8
4/4/24 55.0 1317 42.3 0059 0.59 0.59 18.02 0.078 0.80 319 25.3 1500 W | 261 41.3 96 47 8.8 - 1,019.6 0105 - 1713 - 46.5 53.0 40.6 2.8 0539 -4.7 1522 0.7 25 5.4 - 17.6 0.0 0.59 0.13 0905 0.01 0046 0.03 0945 0.10 0953 10.3
4/3/24 67.9 1420 48.8 0046 0.00 0.00 17.43 0.136 0.83 510 20.7 1656 NW | 304 48.5 98 55 12.8 - 1,029.7 0101 - 0058 - 56.2 65.2 48.3 4.3 0155 -8.4 1601 6.3 24 0.0 - 8.8 0.1 - - - - - - - - - 10.2
4/2/24 73.6 1642 43.1 0641 0.00 0.00 17.43 0.159 0.75 579 13.0 1509 N | 11 49.3 95 50 12.8 - 1,029.9 2358 - 0101 - 58.0 71.6 42.9 3.5 0000 -9.0 1204 9.3 18 2.0 - 8.7 1.7 - - - - - - - - - 10.6
4/1/24 73.0 1701 42.2 0650 0.00 0.00 17.43 0.160 0.70 568 13.4 1600 NNE | 17 43.7 98 29 13.8 - 1,025.9 0028 - 0101 - 56.8 70.6 41.8 4.9 2004 -7.6 1214 8.9 9 5.7 - 9.6 1.7 - - - - - - - - - 10.7
3/31/24 67.3 1443 43.6 0441 0.00 3.68 17.43 0.125 0.65 477 19.9 1537 S | 191 47.4 98 49 17.8 - 1,015.2 0058 - 1528 - 52.7 65.6 43.1 3.5 2250 -6.5 1235 5.1 - 4.1 618 11.9 0.1 - - - - - - - - - 10.6
3/30/24 63.4 1353 43.7 0657 0.33 3.68 17.43 0.103 0.64 388 17.0 1406 N | 0 46.6 98 48 4.5 - 1,011.3 0020 - 1354 - 51.8 61.1 43.0 2.7 0647 -5.7 1355 4.0 - 1.0 614 12.3 0.0 0.76 1.44 1836 0.02 1846 0.21 1848 0.29 1930 10.4
3/29/24 57.8 1128 44.4 0101 0.43 3.35 17.10 0.037 0.63 142 27.1 1052 ESE | 108 47.2 97 59 10.3 - 1,018.8 0112 - 1732 - 48.8 55.3 44.2 3.2 0336 -2.2 1140 1.3 - 0.3 613 14.6 0.0 0.43 0.33 1502 0.01 0043 0.06 1517 0.19 1518 10.4
3/28/24 62.8 1309 43.7 0034 0.01 2.92 16.67 0.112 0.69 420 19.1 1601 NW | 306 45.7 97 35 11.3 - 1,024.1 1031 - 0058 - 52.8 60.9 43.6 5.4 0238 -6.4 1325 4.2 - 1.4 613 11.4 0.0 0.17 0.15 0121 0.01 0522 0.01 0536 0.05 0107 10.5
3/27/24 62.2 1329 41.5 0549 0.16 2.91 16.66 0.055 0.71 186 20.9 1424 WSW | 246 48.3 97 62 3.8 - 1,026.3 0212 - 2258 - 51.8 60.1 40.8 2.9 0158 -4.0 0939 5.3 - 7.0 611 11.9 0.0 0.16 0.22 0017 0.01 0022 0.05 0022 0.09 0022 10.8
3/26/24 63.8 1613 44.2 0049 0.00 2.75 16.50 0.111 0.78 431 15.1 0854 W | 281 46.2 95 53 5.0 - 1,026.2 0043 - 0419 - 53.7 61.7 43.7 4.1 2043 -8.1 1414 4.8 - 0.5 604 10.9 0.0 - - - - - - - - - 10.5
3/25/24 60.7 1332 46.9 0103 0.00 2.75 16.50 0.104 0.81 406 19.5 0402 WNW | 296 46.0 95 57 13.3 - 1,022.1 0051 - 0528 - 53.8 59.0 46.2 3.6 2324 -7.4 1400 4.6 - 0.0 604 10.7 0.0 - - - - - - - - - 10.7
3/24/24 61.5 1539 45.4 0018 0.12 2.75 16.50 0.116 0.84 479 27.9 1308 WNW | 301 47.1 98 55 13.5 - 1,019.3 0043 - 0154 - 52.4 59.8 45.0 3.5 2338 -5.6 1411 3.8 - 0.0 604 11.7 0.0 0.78 0.17 0645 0.01 0919 0.02 0614 0.04 0444 10.7
3/23/24 60.3 1429 47.7 0308 0.39 2.63 16.38 0.092 0.86 393 28.0 1129 WSW | 254 48.6 98 59 7.0 - 1,017.0 0213 - 1757 - 51.4 58.4 47.1 2.9 0459 -7.3 1233 2.9 - 0.0 604 12.3 0.0 0.66 0.80 2243 0.02 2238 0.05 2129 0.08 2337 11.3
3/22/24 70.2 1228 48.2 0732 0.27 2.24 15.99 0.103 0.92 339 24.4 1435 S | 172 50.6 96 52 4.3 - 1,023.3 0306 - 1937 - 56.0 67.6